Time;durP1;ratioP1;P1;durP2;ratioP2;P2;SDS_P1;SDS_P2;PMS_P1;PMS_P2;Temp;Humidity;BMP_temperature;BMP_pressure;BME280_temperature;BME280_humidity;BME280_pressure;Samples;Min_cycle;Max_cycle;Signal;HPM_P1;HPM_P2
2022/02/07 00:01:51;;;;;;;0.50;0.38;;;5.60;83.10;;;;;;5005559;28;20119;-69
2022/02/07 00:04:23;;;;;;;0.45;0.20;;;5.60;82.70;;;;;;5010840;28;20526;-69
2022/02/07 00:06:50;;;;;;;0.35;0.20;;;5.60;82.40;;;;;;5005560;28;20042;-68
2022/02/07 00:09:19;;;;;;;0.50;0.20;;;5.50;82.30;;;;;;5003490;28;20103;-68
2022/02/07 00:11:52;;;;;;;0.20;0.10;;;5.60;82.20;;;;;;5008328;28;20037;-69
2022/02/07 00:14:19;;;;;;;1.75;0.20;;;5.60;82.10;;;;;;5008502;28;20054;-68
2022/02/07 00:16:46;;;;;;;0.15;0.15;;;5.60;82.00;;;;;;5008959;28;20050;-68
2022/02/07 00:19:19;;;;;;;0.50;0.35;;;5.60;82.00;;;;;;5004377;28;20054;-69
2022/02/07 00:21:47;;;;;;;1.30;0.30;;;5.60;81.80;;;;;;5007564;28;20606;-68
2022/02/07 00:24:14;;;;;;;0.32;0.20;;;5.50;81.80;;;;;;5011404;28;20056;-69
2022/02/07 00:26:42;;;;;;;0.10;0.10;;;5.50;81.60;;;;;;5008670;28;23170;-69
2022/02/07 00:29:14;;;;;;;0.77;0.20;;;5.50;81.50;;;;;;5006964;28;20143;-70
2022/02/07 00:31:41;;;;;;;0.10;0.10;;;5.40;81.50;;;;;;5016531;28;20491;-70
2022/02/07 00:34:08;;;;;;;0.10;0.10;;;5.40;81.50;;;;;;4965958;28;20170;-68
2022/02/07 00:36:48;;;;;;;0.17;0.07;;;5.40;81.40;;;;;;3076673;28;10002716;-70
2022/02/07 00:39:22;;;;;;;0.40;0.30;;;5.30;81.30;;;;;;2580199;28;10001824;-68
2022/02/07 00:41:56;;;;;;;2.90;0.50;;;5.30;81.20;;;;;;5006766;28;20348;-67
2022/02/07 00:44:23;;;;;;;0.47;0.25;;;5.30;81.20;;;;;;4996238;28;20052;-72
2022/02/07 00:46:57;;;;;;;3.25;0.30;;;5.30;81.20;;;;;;4989479;28;20243;-68
2022/02/07 00:49:24;;;;;;;0.90;0.30;;;5.30;81.00;;;;;;4999726;28;20496;-69
2022/02/07 00:51:51;;;;;;;0.20;0.20;;;5.20;80.90;;;;;;5007846;28;21468;-69
2022/02/07 00:54:18;;;;;;;1.42;0.30;;;5.20;80.90;;;;;;4987236;28;20120;-69
2022/02/07 00:56:46;;;;;;;0.77;0.20;;;5.20;81.00;;;;;;4992904;28;20133;-69
2022/02/07 00:59:15;;;;;;;2.75;0.50;;;5.20;80.70;;;;;;4993609;28;20129;-68
2022/02/07 01:01:42;;;;;;;0.57;0.20;;;5.20;80.80;;;;;;4984980;28;20699;-69
2022/02/07 01:04:09;;;;;;;0.73;0.32;;;5.20;80.90;;;;;;4985211;28;20494;-69
2022/02/07 01:06:44;;;;;;;0.95;0.30;;;5.10;80.80;;;;;;5004933;28;20117;-68
2022/02/07 01:09:29;;;;;;;0.50;0.30;;;5.20;80.80;;;;;;5004982;28;20450;-67
2022/02/07 01:12:07;;;;;;;0.93;0.40;;;5.10;80.80;;;;;;4966263;28;20053;-68
2022/02/07 01:15:17;;;;;;;0.65;0.45;;;5.10;80.70;;;;;;4949960;28;20047;-69
2022/02/07 01:51:27;;;;;;;2.15;0.43;;;4.90;79.50;;;;;;5002396;28;20053;-68
2022/02/07 01:54:10;;;;;;;0.73;0.30;;;5.00;79.20;;;;;;5008473;28;20058;-68
2022/02/07 01:56:41;;;;;;;0.40;0.32;;;5.00;78.90;;;;;;4990496;28;20055;-69
2022/02/07 01:59:09;;;;;;;1.15;0.32;;;4.90;78.90;;;;;;5007860;28;20141;-69
2022/02/07 02:01:40;;;;;;;0.15;0.15;;;5.00;78.90;;;;;;5011837;28;20101;-68
2022/02/07 02:04:09;;;;;;;3.22;0.30;;;4.90;79.40;;;;;;4998825;28;20463;-69
2022/02/07 02:06:38;;;;;;;1.23;0.20;;;4.90;80.00;;;;;;4977523;28;20062;-68
2022/02/07 02:09:20;;;;;;;2.17;0.15;;;4.80;80.30;;;;;;5004550;28;20129;-69
2022/02/07 02:11:47;;;;;;;0.13;0.13;;;4.70;80.60;;;;;;4972709;28;20057;-68
2022/02/07 02:14:26;;;;;;;0.17;0.10;;;4.70;80.80;;;;;;4975746;28;20497;-70
2022/02/07 02:20:16;;;;;;;0.10;0.10;;;4.60;81.10;;;;;;4985695;28;20057;-69
2022/02/07 02:23:04;;;;;;;0.30;0.08;;;4.60;81.30;;;;;;4963894;28;24255;-70
2022/02/07 02:36:43;;;;;;;0.00;0.00;;;4.40;81.40;;;;;;1531555;28;10126872;-69
2022/02/07 02:47:32;;;;;;;0.17;0.10;;;4.30;81.60;;;;;;5008057;28;20145;-69
2022/02/07 02:50:26;;;;;;;0.10;0.03;;;4.20;81.60;;;;;;4991285;28;20053;-69
2022/02/07 02:52:53;;;;;;;0.00;0.00;;;4.20;81.70;;;;;;4992916;28;20050;-69
2022/02/07 02:55:21;;;;;;;0.25;0.10;;;4.20;81.70;;;;;;4990391;28;20046;-68
2022/02/07 02:57:48;;;;;;;1.17;0.22;;;4.20;81.70;;;;;;4993279;28;20405;-69
2022/02/07 03:00:16;;;;;;;0.30;0.10;;;4.20;81.70;;;;;;4988782;28;20143;-68
2022/02/07 03:02:43;;;;;;;0.90;0.30;;;4.10;81.70;;;;;;5011554;28;20049;-69
2022/02/07 03:05:12;;;;;;;0.13;0.10;;;4.10;81.90;;;;;;5028664;28;21088;-70
2022/02/07 03:07:38;;;;;;;0.47;0.10;;;4.10;81.70;;;;;;5029026;28;20049;-69
2022/02/07 03:10:07;;;;;;;0.10;0.05;;;4.20;81.80;;;;;;5028541;28;20498;-70
2022/02/07 03:12:44;;;;;;;0.00;0.00;;;4.10;82.00;;;;;;5013757;28;20464;-69
2022/02/07 03:17:52;;;;;;;0.00;0.00;;;4.10;82.00;;;;;;5027927;28;20058;-69
2022/02/07 03:20:19;;;;;;;0.00;0.00;;;4.10;82.00;;;;;;5013835;28;20097;-69
2022/02/07 03:22:46;;;;;;;0.00;0.00;;;4.10;82.00;;;;;;5014251;28;20054;-70
2022/02/07 03:25:13;;;;;;;0.10;0.10;;;4.10;82.10;;;;;;5030092;28;20140;-69
2022/02/07 03:27:48;;;;;;;2.88;0.30;;;4.10;82.10;;;;;;5010596;28;20041;-70
2022/02/07 03:30:27;;;;;;;0.73;0.30;;;4.10;82.00;;;;;;5011205;28;20431;-70
2022/02/07 03:32:55;;;;;;;3.10;0.20;;;4.00;82.00;;;;;;5029061;28;20510;-69
2022/02/07 03:35:22;;;;;;;1.67;0.32;;;4.10;82.00;;;;;;5013625;28;20480;-69
2022/02/07 03:37:49;;;;;;;0.55;0.08;;;4.00;82.00;;;;;;5029708;28;20053;-70
2022/02/07 03:40:18;;;;;;;2.53;0.22;;;4.10;82.10;;;;;;5014768;28;20057;-69
2022/02/07 03:42:49;;;;;;;2.22;0.30;;;4.00;81.80;;;;;;5011830;28;20076;-70
2022/02/07 03:45:16;;;;;;;1.30;1.17;;;4.00;82.00;;;;;;5028971;28;20101;-69
2022/02/07 03:47:47;;;;;;;2.60;0.20;;;4.10;81.90;;;;;;5028744;28;20056;-70
2022/02/07 03:50:17;;;;;;;2.00;0.20;;;4.00;81.80;;;;;;5009691;28;20049;-70
2022/02/07 03:52:51;;;;;;;2.25;0.30;;;4.10;81.80;;;;;;5022127;28;20084;-69
2022/02/07 03:55:19;;;;;;;0.60;0.20;;;4.10;81.90;;;;;;5023922;28;20050;-69
2022/02/07 03:57:47;;;;;;;0.85;0.22;;;4.10;81.90;;;;;;5025610;28;20053;-70
2022/02/07 04:00:16;;;;;;;1.17;0.20;;;4.10;82.00;;;;;;5009282;28;20510;-70
2022/02/07 04:02:46;;;;;;;3.40;0.45;;;4.10;81.90;;;;;;5011547;28;20059;-69
2022/02/07 04:08:19;;;;;;;5.60;0.30;;;4.10;82.00;;;;;;4997454;28;20476;-69
2022/02/07 04:10:59;;;;;;;;;;;4.20;81.90;;;;;;5004674;28;20046;-70
2022/02/07 04:13:30;;;;;;;0.10;0.10;;;4.10;82.00;;;;;;4978151;28;20479;-69
2022/02/07 04:16:01;;;;;;;0.70;0.20;;;4.10;82.00;;;;;;4984806;28;20060;-69
2022/02/07 04:18:33;;;;;;;2.83;0.20;;;4.10;82.20;;;;;;5010562;28;20458;-68
2022/02/07 04:21:01;;;;;;;3.53;1.55;;;4.10;82.30;;;;;;4990654;28;20664;-69
2022/02/07 04:23:30;;;;;;;3.08;0.57;;;4.00;82.30;;;;;;5025763;28;20062;-70
2022/02/07 04:26:17;;;;;;;2.67;0.60;;;4.10;82.20;;;;;;5007998;28;20049;-68
2022/02/07 04:28:46;;;;;;;0.52;0.20;;;4.10;82.20;;;;;;5004897;28;20056;-69
2022/02/07 04:31:13;;;;;;;0.25;0.20;;;4.10;82.10;;;;;;5033286;28;20479;-68
2022/02/07 04:33:42;;;;;;;0.57;0.22;;;4.10;82.00;;;;;;4973899;28;22299;-71
2022/02/07 04:36:10;;;;;;;0.57;0.20;;;4.10;82.10;;;;;;4994073;28;20091;-69
2022/02/07 04:38:56;;;;;;;0.16;0.14;;;4.00;82.10;;;;;;1247638;28;10023454;-68
2022/02/07 04:41:24;;;;;;;0.57;0.22;;;4.10;82.20;;;;;;4650830;28;10001114;-69
2022/02/07 04:43:58;;;;;;;2.00;0.57;;;4.10;82.10;;;;;;5012652;28;20104;-68
2022/02/07 04:46:39;;;;;;;2.75;0.50;;;4.10;82.00;;;;;;4996147;28;20061;-68
2022/02/07 04:52:03;;;;;;;3.70;0.75;;;4.20;82.10;;;;;;4997825;28;20150;-69
2022/02/07 04:54:47;;;;;;;1.05;0.50;;;4.10;82.10;;;;;;4979556;28;20129;-69
2022/02/07 05:00:03;;;;;;;;;;;4.10;81.90;;;;;;4981184;28;20686;-69
2022/02/07 05:02:53;;;;;;;1.65;0.38;;;4.10;82.00;;;;;;5012610;28;19929;-70
2022/02/07 05:13:37;;;;;;;1.30;0.68;;;4.00;81.90;;;;;;5010755;28;20060;-69
2022/02/07 05:13:47;;;;;;;6.95;1.40;;;4.00;82.20;;;;;;5011899;28;20419;-69
2022/02/07 05:16:23;;;;;;;1.30;0.38;;;4.00;82.20;;;;;;4997855;28;20054;-70
2022/02/07 05:18:57;;;;;;;2.20;0.82;;;4.00;82.20;;;;;;5008274;28;20196;-69
2022/02/07 05:21:40;;;;;;;0.82;0.40;;;4.00;82.30;;;;;;5011323;28;20049;-70
2022/02/07 05:24:34;;;;;;;2.67;0.65;;;4.10;82.20;;;;;;4967846;28;20116;-70
2022/02/07 05:27:08;;;;;;;2.80;0.60;;;4.10;82.10;;;;;;4991435;28;20993;-69
2022/02/07 05:30:07;;;;;;;5.00;0.65;;;4.10;82.00;;;;;;4979952;28;20137;-69
2022/02/07 05:32:57;;;;;;;5.57;0.80;;;4.20;82.10;;;;;;5010395;28;20302;-69
2022/02/07 05:35:39;;;;;;;3.65;0.93;;;4.20;82.20;;;;;;4994594;28;20468;-69
2022/02/07 05:38:32;;;;;;;5.70;0.88;;;4.20;82.20;;;;;;4992767;28;20076;-70
2022/02/07 05:41:32;;;;;;;2.33;0.45;;;4.20;82.30;;;;;;4977033;28;20049;-70
2022/02/07 05:44:21;;;;;;;4.05;0.65;;;4.10;82.20;;;;;;4994360;28;20054;-70
2022/02/07 05:47:04;;;;;;;1.63;0.70;;;4.10;82.30;;;;;;4990972;28;20049;-69
2022/02/07 05:49:51;;;;;;;0.80;0.40;;;4.10;82.40;;;;;;4996095;28;20076;-68
2022/02/07 05:52:53;;;;;;;2.83;0.68;;;4.10;82.30;;;;;;4991669;28;20054;-69
2022/02/07 05:55:30;;;;;;;4.25;0.85;;;4.10;82.40;;;;;;4999207;28;20053;-69
2022/02/07 05:58:27;;;;;;;6.13;1.60;;;4.10;82.40;;;;;;4997467;28;20581;-68
2022/02/07 06:01:21;;;;;;;0.77;0.40;;;4.00;82.30;;;;;;5022120;28;20393;-70
2022/02/07 06:03:49;;;;;;;2.05;0.70;;;4.00;82.30;;;;;;4995606;28;20049;-68
2022/02/07 06:06:17;;;;;;;2.47;0.70;;;4.00;82.20;;;;;;5006800;28;20061;-68
2022/02/07 06:08:45;;;;;;;1.43;0.60;;;4.00;82.20;;;;;;4987578;28;20057;-69
2022/02/07 06:11:16;;;;;;;3.88;0.80;;;4.00;82.30;;;;;;5019754;28;20516;-69
2022/02/07 06:13:45;;;;;;;1.95;0.40;;;4.00;82.20;;;;;;4987727;28;20054;-69
2022/02/07 06:16:16;;;;;;;3.67;0.60;;;4.00;82.30;;;;;;5027049;28;20048;-70
2022/02/07 06:18:48;;;;;;;2.05;0.55;;;4.00;82.20;;;;;;5006650;28;20046;-69
2022/02/07 06:21:18;;;;;;;1.15;0.30;;;4.00;82.20;;;;;;5025760;28;20072;-70
2022/02/07 06:23:45;;;;;;;4.20;0.52;;;4.00;82.20;;;;;;5028825;28;20065;-68
2022/02/07 06:26:16;;;;;;;1.48;0.43;;;4.00;82.20;;;;;;4996705;28;20057;-70
2022/02/07 06:28:46;;;;;;;3.80;0.57;;;4.10;82.20;;;;;;5028617;28;20061;-68
2022/02/07 06:31:14;;;;;;;5.95;0.75;;;4.10;82.20;;;;;;5028010;28;20057;-69
2022/02/07 06:33:42;;;;;;;4.22;1.08;;;4.10;82.20;;;;;;4970269;28;21279;-72
2022/02/07 06:36:20;;;;;;;0.63;0.39;;;4.00;82.30;;;;;;3740064;28;10150753;-69
2022/02/07 06:38:48;;;;;;;3.38;0.60;;;4.00;82.40;;;;;;2065197;28;10002086;-69
2022/02/07 06:41:16;;;;;;;3.22;0.88;;;4.00;82.50;;;;;;5028092;28;20705;-69
2022/02/07 06:43:44;;;;;;;4.22;0.57;;;4.10;82.40;;;;;;5019322;28;20613;-69
2022/02/07 06:46:12;;;;;;;2.70;0.57;;;4.10;82.40;;;;;;5005873;28;20053;-69
2022/02/07 06:48:41;;;;;;;1.50;0.57;;;4.10;82.50;;;;;;5025851;28;20870;-71
2022/02/07 06:51:11;;;;;;;0.98;0.30;;;4.20;82.50;;;;;;5025757;28;20140;-70
2022/02/07 06:53:42;;;;;;;4.25;0.57;;;4.10;82.40;;;;;;4991639;28;20049;-68
2022/02/07 06:56:11;;;;;;;1.98;0.68;;;4.10;82.40;;;;;;4991803;28;20633;-70
2022/02/07 06:58:39;;;;;;;4.70;0.98;;;4.10;82.50;;;;;;5027225;28;20052;-70
2022/02/07 07:01:07;;;;;;;1.65;0.55;;;4.10;82.50;;;;;;4991395;28;20085;-69
2022/02/07 07:03:38;;;;;;;3.58;0.50;;;4.20;82.50;;;;;;5009558;28;20522;-70
2022/02/07 07:06:05;;;;;;;3.03;0.70;;;4.20;82.50;;;;;;5009644;28;20395;-68
2022/02/07 07:08:38;;;;;;;3.22;0.60;;;4.20;82.50;;;;;;4992234;28;20132;-69
2022/02/07 07:11:09;;;;;;;1.60;0.75;;;4.20;82.60;;;;;;5010413;28;20115;-68
2022/02/07 07:13:42;;;;;;;2.17;0.70;;;4.20;82.60;;;;;;4974873;28;20108;-69
2022/02/07 07:16:36;;;;;;;1.08;0.43;;;4.20;82.60;;;;;;4974867;28;20065;-70
2022/02/07 07:19:07;;;;;;;5.35;0.75;;;4.20;82.60;;;;;;4974582;28;20050;-69
2022/02/07 07:21:37;;;;;;;0.95;0.50;;;4.20;82.50;;;;;;4974114;28;20515;-69
2022/02/07 07:24:07;;;;;;;3.08;0.57;;;4.20;82.50;;;;;;5008136;28;20084;-69
2022/02/07 07:26:36;;;;;;;3.70;0.57;;;4.20;82.60;;;;;;5006387;28;20053;-71
2022/02/07 07:29:11;;;;;;;1.60;0.47;;;4.20;82.60;;;;;;4988613;28;20038;-69
2022/02/07 07:31:43;;;;;;;1.23;0.77;;;4.30;82.60;;;;;;4992399;28;20498;-69
2022/02/07 07:34:15;;;;;;;2.67;1.15;;;4.20;82.60;;;;;;5007572;28;20084;-68
2022/02/07 07:36:42;;;;;;;2.10;0.63;;;4.30;82.70;;;;;;4976115;28;20048;-69
2022/02/07 07:39:12;;;;;;;4.50;0.82;;;4.30;82.70;;;;;;4976414;28;20049;-69
2022/02/07 07:41:42;;;;;;;1.58;0.63;;;4.30;82.50;;;;;;5009909;28;20053;-69
2022/02/07 07:44:18;;;;;;;3.55;0.57;;;4.30;82.40;;;;;;5012846;28;20067;-69
2022/02/07 07:47:06;;;;;;;4.60;0.90;;;4.40;82.40;;;;;;4996730;28;20064;-70
2022/02/07 07:50:05;;;;;;;8.65;1.15;;;4.30;82.40;;;;;;4991613;28;20057;-69
2022/02/07 07:53:00;;;;;;;2.75;0.93;;;4.30;82.40;;;;;;5012052;28;20054;-71
2022/02/07 08:01:37;;;;;;;5.05;1.10;;;4.40;82.30;;;;;;4992521;28;20081;-69
2022/02/07 08:04:05;;;;;;;9.00;2.08;;;4.40;82.40;;;;;;4995635;28;20160;-69
2022/02/07 08:06:39;;;;;;;3.03;1.27;;;4.40;82.40;;;;;;5014095;28;20050;-68
2022/02/07 08:09:19;;;;;;;3.90;0.60;;;4.40;82.40;;;;;;5012149;28;20050;-68
2022/02/07 08:11:47;;;;;;;2.17;0.50;;;4.40;82.40;;;;;;4996006;28;20053;-69
2022/02/07 08:14:15;;;;;;;1.23;0.52;;;4.50;82.30;;;;;;4997192;28;20048;-69
2022/02/07 08:16:42;;;;;;;2.65;0.70;;;4.50;82.40;;;;;;5013390;28;20135;-69
2022/02/07 08:19:11;;;;;;;5.07;1.00;;;4.50;82.30;;;;;;5014278;28;20800;-68
2022/02/07 08:21:38;;;;;;;2.25;0.45;;;4.60;82.30;;;;;;4999238;28;20133;-68
2022/02/07 08:24:07;;;;;;;2.70;0.50;;;4.60;82.20;;;;;;4998650;28;20044;-69
2022/02/07 08:26:34;;;;;;;1.48;0.57;;;4.60;82.10;;;;;;4999407;28;20049;-72
2022/02/07 08:29:01;;;;;;;2.85;0.80;;;4.60;82.20;;;;;;4998797;28;20437;-69
2022/02/07 08:31:33;;;;;;;1.88;0.55;;;4.60;82.30;;;;;;4997927;28;20042;-69
2022/02/07 08:34:00;;;;;;;2.28;0.40;;;4.70;82.10;;;;;;4996853;28;20042;-69
2022/02/07 08:36:27;;;;;;;2.75;0.77;;;4.70;82.10;;;;;;4997298;28;20050;-68
2022/02/07 08:38:54;;;;;;;1.35;0.55;;;4.70;82.10;;;;;;4998276;28;20046;-69
2022/02/07 08:41:21;;;;;;;3.03;1.13;;;4.70;82.10;;;;;;4997649;28;20050;-71
2022/02/07 08:43:48;;;;;;;2.03;0.68;;;4.80;82.00;;;;;;4998018;28;20052;-68
2022/02/07 08:46:15;;;;;;;2.03;0.93;;;4.80;82.00;;;;;;4989540;28;20045;-70
2022/02/07 08:48:43;;;;;;;2.40;0.57;;;4.80;82.00;;;;;;4990515;28;20049;-68
2022/02/07 08:51:10;;;;;;;4.15;1.85;;;4.70;82.00;;;;;;4992878;28;20092;-70
2022/02/07 08:53:41;;;;;;;3.83;0.50;;;4.80;82.00;;;;;;4993768;28;20057;-70
2022/02/07 08:56:08;;;;;;;5.45;0.98;;;4.80;81.90;;;;;;4996920;28;21275;-70
2022/02/07 08:58:37;;;;;;;3.70;0.63;;;4.80;82.10;;;;;;4997468;28;20504;-69
2022/02/07 09:01:14;;;;;;;5.03;1.42;;;4.80;82.20;;;;;;4877884;28;21356;-69
2022/02/07 09:06:36;;;;;;;3.67;1.02;;;4.90;82.40;;;;;;5015477;28;20479;-70
2022/02/07 09:09:09;;;;;;;2.63;0.88;;;4.90;82.30;;;;;;5016548;28;21924;-69
2022/02/07 09:11:38;;;;;;;5.22;1.23;;;4.90;82.20;;;;;;5016965;28;20379;-69
2022/02/07 09:14:10;;;;;;;4.75;1.63;;;4.90;82.30;;;;;;5016293;28;20116;-70
2022/02/07 09:16:38;;;;;;;2.15;0.90;;;5.00;82.30;;;;;;5010430;28;20160;-69
2022/02/07 09:19:06;;;;;;;13.50;1.45;;;5.00;82.30;;;;;;5014685;28;20045;-69
2022/02/07 09:21:35;;;;;;;3.20;0.90;;;5.00;82.30;;;;;;5015255;28;20056;-69
2022/02/07 09:24:04;;;;;;;2.67;0.70;;;5.00;82.20;;;;;;5015615;28;20120;-70
2022/02/07 09:26:32;;;;;;;5.57;1.25;;;5.10;82.10;;;;;;5011665;28;20108;-70
2022/02/07 09:29:00;;;;;;;6.85;1.05;;;5.10;82.10;;;;;;5012285;28;20048;-71
2022/02/07 09:31:28;;;;;;;1.65;0.93;;;5.10;82.10;;;;;;5009653;28;20046;-69
2022/02/07 09:33:55;;;;;;;5.15;1.50;;;5.20;82.10;;;;;;5007868;28;20042;-69
2022/02/07 09:36:24;;;;;;;6.07;1.50;;;5.20;82.20;;;;;;5009035;28;20041;-69
2022/02/07 09:38:53;;;;;;;1.30;0.82;;;5.10;82.10;;;;;;5008833;28;20045;-70
2022/02/07 09:41:22;;;;;;;3.42;1.48;;;5.20;82.10;;;;;;5011036;28;20514;-71
2022/02/07 09:43:50;;;;;;;6.53;1.40;;;5.20;82.10;;;;;;5007115;28;20142;-69
2022/02/07 09:46:22;;;;;;;1.23;0.60;;;5.20;82.10;;;;;;5009050;28;20128;-70
2022/02/07 09:48:52;;;;;;;1.25;0.75;;;5.20;82.10;;;;;;5009308;28;20047;-69
2022/02/07 09:51:19;;;;;;;9.82;1.92;;;5.20;82.00;;;;;;5007729;28;20042;-71
2022/02/07 09:53:47;;;;;;;1.70;0.90;;;5.20;82.00;;;;;;5009766;28;20034;-70
2022/02/07 09:56:17;;;;;;;3.88;1.05;;;5.30;82.00;;;;;;5011211;28;20037;-72
2022/02/07 09:58:48;;;;;;;5.07;1.13;;;5.30;81.90;;;;;;5013677;28;20908;-70
2022/02/07 10:01:23;;;;;;;2.67;0.80;;;5.30;81.90;;;;;;5008376;28;20041;-70
2022/02/07 10:03:56;;;;;;;3.72;1.70;;;5.30;81.90;;;;;;5015188;28;20045;-70
2022/02/07 10:06:44;;;;;;;3.03;0.65;;;5.30;81.90;;;;;;5015799;28;20944;-69
2022/02/07 10:09:20;;;;;;;3.53;0.98;;;5.40;81.90;;;;;;5013097;28;20411;-70
2022/02/07 10:12:05;;;;;;;3.22;1.20;;;5.40;81.90;;;;;;5013659;28;21997;-70
2022/02/07 10:14:40;;;;;;;2.42;0.80;;;5.40;81.90;;;;;;5008099;28;20903;-70
2022/02/07 10:17:26;;;;;;;2.88;1.20;;;5.40;82.00;;;;;;5008441;28;20041;-69
2022/02/07 10:20:14;;;;;;;2.40;0.65;;;5.40;81.80;;;;;;5008657;28;20049;-71
2022/02/07 10:40:27;;;;;;;2.03;0.65;;;5.60;81.80;;;;;;5021339;28;20041;-70
2022/02/07 10:43:12;;;;;;;;;;;5.60;81.80;;;;;;5008168;28;20041;-71
2022/02/07 10:46:04;;;;;;;4.28;0.80;;;5.70;81.90;;;;;;5007129;28;19925;-69
2022/02/07 10:48:37;;;;;;;2.75;1.23;;;5.70;81.70;;;;;;5007109;28;20051;-70
2022/02/07 10:51:06;;;;;;;4.57;1.13;;;5.70;81.60;;;;;;5008234;28;20175;-69
2022/02/07 10:53:36;;;;;;;3.55;0.75;;;5.70;81.60;;;;;;5009251;28;20045;-69
2022/02/07 10:56:03;;;;;;;2.50;0.75;;;5.70;81.40;;;;;;5012590;28;20064;-70
2022/02/07 10:58:32;;;;;;;6.13;1.15;;;5.70;81.50;;;;;;5010529;28;20037;-71
2022/02/07 11:01:08;;;;;;;4.57;1.00;;;5.70;81.50;;;;;;5006702;28;20882;-70
2022/02/07 11:03:40;;;;;;;4.82;1.27;;;5.70;81.40;;;;;;5009223;28;20046;-70
2022/02/07 11:06:10;;;;;;;2.83;0.93;;;5.80;81.30;;;;;;5007379;28;20138;-69
2022/02/07 11:08:51;;;;;;;3.83;1.05;;;5.80;81.30;;;;;;5006353;28;20180;-70
2022/02/07 11:11:42;;;;;;;4.00;1.25;;;5.80;81.30;;;;;;5009373;28;20041;-71
2022/02/07 11:17:27;;;;;;;;;;;5.90;81.40;;;;;;3617277;28;10001388;-70
2022/02/07 11:20:05;;;;;;;1.58;0.57;;;5.90;81.40;;;;;;5011767;28;19932;-69
2022/02/07 11:22:52;;;;;;;3.40;0.70;;;5.90;81.30;;;;;;5010866;28;20045;-70
2022/02/07 11:25:27;;;;;;;7.43;1.20;;;5.90;81.30;;;;;;5013663;28;20056;-70
2022/02/07 11:27:58;;;;;;;5.55;1.02;;;5.90;81.50;;;;;;5029271;28;20672;-71
2022/02/07 11:30:43;;;;;;;2.95;0.85;;;5.90;81.60;;;;;;5014737;28;20051;-70
2022/02/07 11:33:30;;;;;;;6.65;1.27;;;5.80;81.40;;;;;;5010592;28;20562;-70
2022/02/07 11:35:57;;;;;;;5.05;0.70;;;5.90;80.90;;;;;;5006170;28;20733;-69
2022/02/07 11:38:24;;;;;;;5.75;0.90;;;5.90;81.10;;;;;;5007430;28;20078;-69
2022/02/07 11:41:01;;;;;;;5.63;1.42;;;6.00;81.10;;;;;;5011226;28;20041;-70
2022/02/07 11:43:33;;;;;;;6.90;1.58;;;6.10;81.10;;;;;;4992835;28;20510;-70
2022/02/07 11:46:05;;;;;;;5.20;1.40;;;6.10;81.10;;;;;;5006937;28;20042;-70
2022/02/07 11:48:39;;;;;;;1.88;0.80;;;6.10;81.00;;;;;;5011701;28;20045;-71
2022/02/07 11:51:11;;;;;;;6.88;1.00;;;6.10;80.20;;;;;;5011482;28;20046;-70
2022/02/07 11:53:45;;;;;;;4.05;0.70;;;6.10;79.70;;;;;;5011861;28;20049;-70
2022/02/07 11:56:18;;;;;;;3.83;1.10;;;6.20;79.40;;;;;;5026840;28;20770;-70
2022/02/07 11:58:51;;;;;;;4.82;1.17;;;6.10;79.20;;;;;;5006804;28;20132;-71
2022/02/07 12:01:43;;;;;;;5.53;1.00;;;6.20;78.70;;;;;;4983929;28;20534;-71
2022/02/07 12:04:11;;;;;;;5.40;1.00;;;6.20;78.50;;;;;;5006832;28;20052;-70
2022/02/07 12:06:38;;;;;;;0.75;0.60;;;6.20;78.80;;;;;;5004502;28;20046;-71
2022/02/07 12:09:20;;;;;;;3.20;0.75;;;6.30;78.90;;;;;;5006611;28;20041;-72
2022/02/07 12:11:47;;;;;;;3.65;0.75;;;6.30;78.50;;;;;;5008153;28;20180;-71
2022/02/07 12:14:29;;;;;;;4.65;2.47;;;6.30;78.40;;;;;;5012272;28;20100;-69
2022/02/07 12:16:56;;;;;;;2.47;0.88;;;6.30;78.30;;;;;;5014448;28;20120;-71
2022/02/07 12:19:35;;;;;;;3.90;0.63;;;6.30;78.50;;;;;;5016972;28;20048;-72
2022/02/07 12:22:13;;;;;;;1.50;0.90;;;6.20;78.90;;;;;;5013341;28;20041;-70
2022/02/07 12:24:52;;;;;;;1.88;0.73;;;6.30;79.10;;;;;;4990930;28;20132;-70
2022/02/07 12:27:20;;;;;;;4.07;0.85;;;6.30;79.20;;;;;;5016561;28;20459;-69
2022/02/07 12:30:16;;;;;;;1.20;0.52;;;6.30;78.90;;;;;;5010572;28;20042;-72
2022/02/07 12:32:43;;;;;;;3.35;0.75;;;6.30;79.10;;;;;;5008178;28;20262;-71
2022/02/07 12:35:25;;;;;;;3.60;0.80;;;6.30;78.80;;;;;;3329916;28;10022704;-71
2022/02/07 12:37:53;;;;;;;2.78;0.55;;;6.30;78.70;;;;;;2579184;28;10002286;-71
2022/02/07 12:40:20;;;;;;;1.55;0.77;;;6.30;78.60;;;;;;4989767;28;20058;-70
2022/02/07 12:42:50;;;;;;;2.38;1.00;;;6.30;78.60;;;;;;4991201;28;20077;-70
2022/02/07 12:45:18;;;;;;;1.63;0.55;;;6.30;78.80;;;;;;4993974;28;20045;-71
2022/02/07 12:47:49;;;;;;;2.13;0.70;;;6.30;79.00;;;;;;4992365;28;20050;-70
2022/02/07 12:50:18;;;;;;;1.63;0.70;;;6.30;78.70;;;;;;4993916;28;20064;-71
2022/02/07 12:52:46;;;;;;;1.45;0.77;;;6.30;78.30;;;;;;4992814;28;20077;-70
2022/02/07 12:55:14;;;;;;;3.25;0.60;;;6.30;78.30;;;;;;4991426;28;20594;-71
2022/02/07 12:57:42;;;;;;;3.75;0.82;;;6.40;77.20;;;;;;4990058;28;20131;-72
2022/02/07 13:00:11;;;;;;;3.72;1.00;;;6.40;77.10;;;;;;4988727;28;20054;-70
2022/02/07 13:02:42;;;;;;;6.60;1.08;;;6.40;76.90;;;;;;4996556;28;20442;-71
2022/02/07 13:05:10;;;;;;;3.03;0.70;;;6.40;77.00;;;;;;4988905;28;20038;-71
2022/02/07 13:07:42;;;;;;;3.45;1.10;;;6.40;76.80;;;;;;4989764;28;20492;-71
2022/02/07 13:10:12;;;;;;;4.63;0.80;;;6.40;77.00;;;;;;4991542;28;20463;-72
2022/02/07 13:12:52;;;;;;;4.30;1.35;;;6.40;77.00;;;;;;4993682;28;20046;-71
2022/02/07 13:15:23;;;;;;;4.00;0.70;;;6.40;76.80;;;;;;4992216;28;20060;-71
2022/02/07 13:17:53;;;;;;;1.67;0.73;;;6.40;77.10;;;;;;4996860;28;20041;-70
2022/02/07 13:20:21;;;;;;;5.75;1.08;;;6.40;77.40;;;;;;4995774;28;20052;-72
2022/02/07 13:22:48;;;;;;;2.58;0.98;;;6.40;77.60;;;;;;4990101;28;20359;-69
2022/02/07 13:25:17;;;;;;;5.90;2.38;;;6.40;77.80;;;;;;4989993;28;20593;-71
2022/02/07 13:27:44;;;;;;;4.15;1.02;;;6.40;77.60;;;;;;4989587;28;20042;-70
2022/02/07 13:30:12;;;;;;;5.28;0.80;;;6.50;77.20;;;;;;4990592;28;20046;-71
2022/02/07 13:32:41;;;;;;;1.58;0.73;;;6.50;77.10;;;;;;4990820;28;20062;-70
2022/02/07 13:35:10;;;;;;;3.08;0.60;;;6.50;77.10;;;;;;4990599;28;20044;-70
2022/02/07 13:37:39;;;;;;;5.25;0.98;;;6.60;77.20;;;;;;5004699;28;20042;-71
2022/02/07 13:40:09;;;;;;;5.20;1.13;;;6.60;77.20;;;;;;4992950;28;20407;-70
2022/02/07 13:42:40;;;;;;;9.50;1.85;;;6.70;77.00;;;;;;5010556;28;20385;-71
2022/02/07 13:45:10;;;;;;;6.03;1.30;;;6.70;77.00;;;;;;4990931;28;20060;-71
2022/02/07 13:47:39;;;;;;;5.25;0.82;;;6.70;76.10;;;;;;4993005;28;20045;-71
2022/02/07 13:50:09;;;;;;;3.15;1.00;;;6.80;75.90;;;;;;4993761;28;20507;-70
2022/02/07 13:52:37;;;;;;;;;;;6.80;75.10;;;;;;4990288;28;20141;-71
2022/02/07 13:55:12;;;;;;;2.33;1.05;;;6.80;75.40;;;;;;4989147;28;19925;-71
2022/02/07 13:57:59;;;;;;;2.30;1.00;;;6.70;75.60;;;;;;4989484;28;20048;-70
2022/02/07 14:00:28;;;;;;;4.13;0.98;;;6.80;76.00;;;;;;4985095;28;20933;-71
2022/02/07 14:03:14;;;;;;;6.18;1.20;;;6.80;75.90;;;;;;4988025;28;20417;-71
2022/02/07 14:05:44;;;;;;;5.88;1.27;;;6.80;76.20;;;;;;5002439;28;20595;-70
2022/02/07 14:08:13;;;;;;;3.42;1.30;;;6.80;76.30;;;;;;4992392;28;20589;-71
2022/02/07 14:10:41;;;;;;;3.00;1.35;;;6.90;76.30;;;;;;4991008;28;20495;-70
2022/02/07 14:13:10;;;;;;;5.18;1.60;;;6.90;76.60;;;;;;4990706;28;20042;-72
2022/02/07 14:15:39;;;;;;;6.63;1.10;;;6.90;76.50;;;;;;4992109;28;20056;-70
2022/02/07 14:18:09;;;;;;;5.28;1.60;;;6.90;76.40;;;;;;4991042;28;20049;-72
2022/02/07 14:20:37;;;;;;;4.15;0.80;;;7.00;76.40;;;;;;4986489;28;20050;-70
2022/02/07 14:23:05;;;;;;;2.97;0.80;;;7.00;75.80;;;;;;4989198;28;20575;-71
2022/02/07 14:25:32;;;;;;;3.20;1.25;;;7.00;75.90;;;;;;4989611;28;20164;-70
2022/02/07 14:28:01;;;;;;;4.80;0.80;;;7.00;74.70;;;;;;4986694;28;20056;-70
2022/02/07 14:30:31;;;;;;;4.40;1.20;;;7.00;74.20;;;;;;4988488;28;20050;-70
2022/02/07 14:32:59;;;;;;;4.63;1.05;;;6.90;73.90;;;;;;4989891;28;20042;-71
2022/02/07 14:35:38;;;;;;;1.87;0.61;;;6.90;73.80;;;;;;3372420;28;10021879;-71
2022/02/07 14:38:07;;;;;;;3.17;1.15;;;6.90;74.30;;;;;;2235861;28;10001995;-70
2022/02/07 14:40:35;;;;;;;6.38;1.65;;;6.90;74.20;;;;;;4994291;28;20037;-71
2022/02/07 14:43:04;;;;;;;3.65;1.13;;;6.90;74.30;;;;;;4993595;28;20573;-71
2022/02/07 14:45:37;;;;;;;5.30;1.40;;;6.90;74.50;;;;;;4992174;28;20046;-70
2022/02/07 14:48:05;;;;;;;6.60;1.27;;;6.80;74.40;;;;;;4987661;28;20487;-70
2022/02/07 14:50:34;;;;;;;3.22;1.00;;;6.80;74.50;;;;;;4988516;28;20044;-71
2022/02/07 14:53:01;;;;;;;6.25;0.88;;;6.80;74.40;;;;;;4988764;28;20038;-71
2022/02/07 14:55:30;;;;;;;6.25;2.05;;;6.80;74.20;;;;;;5004261;28;20046;-71
2022/02/07 14:57:57;;;;;;;5.25;1.08;;;6.80;74.20;;;;;;4989244;28;20073;-70
2022/02/07 15:00:27;;;;;;;5.00;1.35;;;6.80;74.60;;;;;;4986689;28;20071;-70
2022/02/07 15:02:57;;;;;;;6.40;1.25;;;6.70;74.70;;;;;;4992358;28;20049;-70
2022/02/07 15:05:25;;;;;;;4.03;1.27;;;6.70;74.70;;;;;;4996125;28;20125;-70
2022/02/07 15:07:52;;;;;;;4.18;1.15;;;6.70;74.80;;;;;;4994082;28;20046;-72
2022/02/07 15:10:19;;;;;;;6.88;1.05;;;6.70;75.00;;;;;;4993402;28;20128;-72